sensor_id;sensor_type;location;lat;lon;timestamp;temperature;humidity
18291;DHT22;9271;48.590;8.866;2023-02-15T00:01:56;2.20;99.90
18291;DHT22;9271;48.590;8.866;2023-02-15T00:04:24;2.20;99.90
18291;DHT22;9271;48.590;8.866;2023-02-15T00:07:12;2.10;99.90
18291;DHT22;9271;48.590;8.866;2023-02-15T00:09:39;2.00;99.90
18291;DHT22;9271;48.590;8.866;2023-02-15T00:12:05;2.20;99.90
18291;DHT22;9271;48.590;8.866;2023-02-15T00:14:32;2.10;99.90
18291;DHT22;9271;48.590;8.866;2023-02-15T00:17:00;2.10;99.90
18291;DHT22;9271;48.590;8.866;2023-02-15T00:19:27;2.10;99.90
18291;DHT22;9271;48.590;8.866;2023-02-15T00:21:53;2.00;99.90
18291;DHT22;9271;48.590;8.866;2023-02-15T00:24:21;2.10;99.90
18291;DHT22;9271;48.590;8.866;2023-02-15T00:26:48;2.00;99.90
18291;DHT22;9271;48.590;8.866;2023-02-15T00:29:16;2.00;99.90
18291;DHT22;9271;48.590;8.866;2023-02-15T00:31:43;1.90;99.90
18291;DHT22;9271;48.590;8.866;2023-02-15T00:34:13;1.80;99.90
18291;DHT22;9271;48.590;8.866;2023-02-15T00:36:40;1.90;99.90
18291;DHT22;9271;48.590;8.866;2023-02-15T00:39:08;1.80;99.90
18291;DHT22;9271;48.590;8.866;2023-02-15T00:41:35;1.90;99.90
18291;DHT22;9271;48.590;8.866;2023-02-15T00:44:02;1.70;99.90
18291;DHT22;9271;48.590;8.866;2023-02-15T00:46:29;1.70;99.90
18291;DHT22;9271;48.590;8.866;2023-02-15T00:48:55;1.80;99.90
18291;DHT22;9271;48.590;8.866;2023-02-15T00:51:23;1.80;99.90
18291;DHT22;9271;48.590;8.866;2023-02-15T00:53:50;1.80;99.90
18291;DHT22;9271;48.590;8.866;2023-02-15T00:56:17;1.80;99.90
18291;DHT22;9271;48.590;8.866;2023-02-15T00:58:44;1.80;99.90
18291;DHT22;9271;48.590;8.866;2023-02-15T01:01:12;1.70;99.90
18291;DHT22;9271;48.590;8.866;2023-02-15T01:03:39;1.60;99.90
18291;DHT22;9271;48.590;8.866;2023-02-15T01:06:07;1.50;99.90
18291;DHT22;9271;48.590;8.866;2023-02-15T01:08:35;1.40;99.90
18291;DHT22;9271;48.590;8.866;2023-02-15T01:11:04;1.00;99.90
18291;DHT22;9271;48.590;8.866;2023-02-15T01:13:31;1.00;99.90
18291;DHT22;9271;48.590;8.866;2023-02-15T01:15:57;1.10;99.90
18291;DHT22;9271;48.590;8.866;2023-02-15T01:18:24;1.30;99.90
18291;DHT22;9271;48.590;8.866;2023-02-15T01:20:50;1.50;99.90
18291;DHT22;9271;48.590;8.866;2023-02-15T01:23:17;1.50;99.90
18291;DHT22;9271;48.590;8.866;2023-02-15T01:25:45;1.40;99.90
18291;DHT22;9271;48.590;8.866;2023-02-15T01:28:12;1.30;99.90
18291;DHT22;9271;48.590;8.866;2023-02-15T01:30:40;1.40;99.90
18291;DHT22;9271;48.590;8.866;2023-02-15T01:33:07;1.50;99.90
18291;DHT22;9271;48.590;8.866;2023-02-15T01:35:43;1.50;99.90
18291;DHT22;9271;48.590;8.866;2023-02-15T01:38:09;1.40;99.90
18291;DHT22;9271;48.590;8.866;2023-02-15T01:40:36;1.50;99.90
18291;DHT22;9271;48.590;8.866;2023-02-15T01:43:10;1.40;99.90
18291;DHT22;9271;48.590;8.866;2023-02-15T01:45:37;1.20;99.90
18291;DHT22;9271;48.590;8.866;2023-02-15T01:48:05;1.20;99.90
18291;DHT22;9271;48.590;8.866;2023-02-15T01:50:34;1.20;99.90
18291;DHT22;9271;48.590;8.866;2023-02-15T01:53:06;1.00;99.90
18291;DHT22;9271;48.590;8.866;2023-02-15T01:55:36;1.00;99.90
18291;DHT22;9271;48.590;8.866;2023-02-15T01:58:03;1.10;99.90
18291;DHT22;9271;48.590;8.866;2023-02-15T02:00:31;1.20;99.90
18291;DHT22;9271;48.590;8.866;2023-02-15T02:02:58;1.10;99.90
18291;DHT22;9271;48.590;8.866;2023-02-15T02:05:26;1.10;99.90
18291;DHT22;9271;48.590;8.866;2023-02-15T02:07:56;1.00;99.90
18291;DHT22;9271;48.590;8.866;2023-02-15T02:10:24;1.10;99.90
18291;DHT22;9271;48.590;8.866;2023-02-15T02:12:53;1.00;99.90
18291;DHT22;9271;48.590;8.866;2023-02-15T02:15:34;1.10;99.90
18291;DHT22;9271;48.590;8.866;2023-02-15T02:18:20;1.10;99.90
18291;DHT22;9271;48.590;8.866;2023-02-15T02:21:09;1.20;99.90
18291;DHT22;9271;48.590;8.866;2023-02-15T02:24:16;1.20;99.90
18291;DHT22;9271;48.590;8.866;2023-02-15T02:27:17;1.10;99.90
18291;DHT22;9271;48.590;8.866;2023-02-15T02:30:01;1.00;99.90
18291;DHT22;9271;48.590;8.866;2023-02-15T02:35:40;1.10;99.90
18291;DHT22;9271;48.590;8.866;2023-02-15T02:38:14;1.00;99.90
18291;DHT22;9271;48.590;8.866;2023-02-15T02:40:51;0.90;99.90
18291;DHT22;9271;48.590;8.866;2023-02-15T02:43:21;1.00;99.90
18291;DHT22;9271;48.590;8.866;2023-02-15T02:45:55;1.00;99.90
18291;DHT22;9271;48.590;8.866;2023-02-15T02:48:26;1.10;99.90
18291;DHT22;9271;48.590;8.866;2023-02-15T02:50:55;1.00;99.90
18291;DHT22;9271;48.590;8.866;2023-02-15T02:53:22;1.00;99.90
18291;DHT22;9271;48.590;8.866;2023-02-15T02:55:53;1.00;99.90
18291;DHT22;9271;48.590;8.866;2023-02-15T02:58:25;1.00;99.90
18291;DHT22;9271;48.590;8.866;2023-02-15T03:00:56;1.00;99.90
18291;DHT22;9271;48.590;8.866;2023-02-15T03:03:26;0.90;99.90
18291;DHT22;9271;48.590;8.866;2023-02-15T03:05:59;0.80;99.90
18291;DHT22;9271;48.590;8.866;2023-02-15T03:08:30;0.70;99.90
18291;DHT22;9271;48.590;8.866;2023-02-15T03:11:01;0.80;99.90
18291;DHT22;9271;48.590;8.866;2023-02-15T03:13:28;0.60;99.90
18291;DHT22;9271;48.590;8.866;2023-02-15T03:15:55;0.70;99.90
18291;DHT22;9271;48.590;8.866;2023-02-15T03:18:44;0.70;99.90
18291;DHT22;9271;48.590;8.866;2023-02-15T03:21:20;0.60;99.90
18291;DHT22;9271;48.590;8.866;2023-02-15T03:23:51;0.70;99.90
18291;DHT22;9271;48.590;8.866;2023-02-15T03:26:20;0.60;99.90
18291;DHT22;9271;48.590;8.866;2023-02-15T03:28:50;0.70;99.90
18291;DHT22;9271;48.590;8.866;2023-02-15T03:31:18;0.70;99.90
18291;DHT22;9271;48.590;8.866;2023-02-15T03:33:52;0.70;99.90
18291;DHT22;9271;48.590;8.866;2023-02-15T03:36:25;0.70;99.90
18291;DHT22;9271;48.590;8.866;2023-02-15T03:38:58;0.50;99.90
18291;DHT22;9271;48.590;8.866;2023-02-15T03:41:29;0.60;99.90
18291;DHT22;9271;48.590;8.866;2023-02-15T03:44:03;0.50;99.90
18291;DHT22;9271;48.590;8.866;2023-02-15T03:46:35;0.50;99.90
18291;DHT22;9271;48.590;8.866;2023-02-15T03:49:08;0.60;99.90
18291;DHT22;9271;48.590;8.866;2023-02-15T03:51:39;0.60;99.90
18291;DHT22;9271;48.590;8.866;2023-02-15T03:54:08;0.60;99.90
18291;DHT22;9271;48.590;8.866;2023-02-15T03:56:37;0.60;99.90
18291;DHT22;9271;48.590;8.866;2023-02-15T03:59:04;0.60;99.90
18291;DHT22;9271;48.590;8.866;2023-02-15T04:01:58;0.60;99.90
18291;DHT22;9271;48.590;8.866;2023-02-15T04:04:34;0.50;99.90
18291;DHT22;9271;48.590;8.866;2023-02-15T04:07:04;0.50;99.90
18291;DHT22;9271;48.590;8.866;2023-02-15T04:09:30;0.50;99.90
18291;DHT22;9271;48.590;8.866;2023-02-15T04:12:15;0.20;99.90
18291;DHT22;9271;48.590;8.866;2023-02-15T04:14:41;-0.10;99.90
18291;DHT22;9271;48.590;8.866;2023-02-15T04:17:26;-0.10;99.90
18291;DHT22;9271;48.590;8.866;2023-02-15T04:19:53;0.10;99.90
18291;DHT22;9271;48.590;8.866;2023-02-15T04:22:38;0.30;99.90
18291;DHT22;9271;48.590;8.866;2023-02-15T04:25:22;0.30;99.90
18291;DHT22;9271;48.590;8.866;2023-02-15T04:27:52;0.30;99.90
18291;DHT22;9271;48.590;8.866;2023-02-15T04:30:20;0.40;99.90
18291;DHT22;9271;48.590;8.866;2023-02-15T04:32:47;0.30;99.90
18291;DHT22;9271;48.590;8.866;2023-02-15T04:35:14;0.10;99.90
18291;DHT22;9271;48.590;8.866;2023-02-15T04:37:43;-0.10;99.90
18291;DHT22;9271;48.590;8.866;2023-02-15T04:40:12;-0.10;99.90
18291;DHT22;9271;48.590;8.866;2023-02-15T04:42:39;-0.40;99.90
18291;DHT22;9271;48.590;8.866;2023-02-15T04:45:06;-0.50;99.90
18291;DHT22;9271;48.590;8.866;2023-02-15T04:47:33;-0.30;99.90
18291;DHT22;9271;48.590;8.866;2023-02-15T04:50:00;-0.10;99.90
18291;DHT22;9271;48.590;8.866;2023-02-15T04:52:26;0.00;99.90
18291;DHT22;9271;48.590;8.866;2023-02-15T04:54:54;0.10;99.90
18291;DHT22;9271;48.590;8.866;2023-02-15T04:57:21;0.20;99.90
18291;DHT22;9271;48.590;8.866;2023-02-15T04:59:48;0.10;99.90
18291;DHT22;9271;48.590;8.866;2023-02-15T05:02:14;0.00;99.90
18291;DHT22;9271;48.590;8.866;2023-02-15T05:04:41;0.00;99.90
18291;DHT22;9271;48.590;8.866;2023-02-15T05:07:07;0.00;99.90
18291;DHT22;9271;48.590;8.866;2023-02-15T05:09:34;0.20;99.90
18291;DHT22;9271;48.590;8.866;2023-02-15T05:12:02;0.30;99.90
18291;DHT22;9271;48.590;8.866;2023-02-15T05:14:29;0.20;99.90
18291;DHT22;9271;48.590;8.866;2023-02-15T05:16:55;0.10;99.90
18291;DHT22;9271;48.590;8.866;2023-02-15T05:19:23;0.20;99.90
18291;DHT22;9271;48.590;8.866;2023-02-15T05:21:50;0.20;99.90
18291;DHT22;9271;48.590;8.866;2023-02-15T05:24:17;0.10;99.90
18291;DHT22;9271;48.590;8.866;2023-02-15T05:27:03;0.10;99.90
18291;DHT22;9271;48.590;8.866;2023-02-15T05:29:47;0.20;99.90
18291;DHT22;9271;48.590;8.866;2023-02-15T05:32:14;0.10;99.90
18291;DHT22;9271;48.590;8.866;2023-02-15T05:34:40;0.00;99.90
18291;DHT22;9271;48.590;8.866;2023-02-15T05:37:07;-0.10;99.90
18291;DHT22;9271;48.590;8.866;2023-02-15T05:39:34;-0.10;99.90
18291;DHT22;9271;48.590;8.866;2023-02-15T05:42:00;-0.10;99.90
18291;DHT22;9271;48.590;8.866;2023-02-15T05:44:28;0.00;99.90
18291;DHT22;9271;48.590;8.866;2023-02-15T05:46:55;0.00;99.90
18291;DHT22;9271;48.590;8.866;2023-02-15T05:49:22;-0.10;99.90
18291;DHT22;9271;48.590;8.866;2023-02-15T05:51:48;-0.10;99.90
18291;DHT22;9271;48.590;8.866;2023-02-15T05:54:15;-0.10;99.90
18291;DHT22;9271;48.590;8.866;2023-02-15T05:56:42;-0.10;99.90
18291;DHT22;9271;48.590;8.866;2023-02-15T05:59:08;0.00;99.90
18291;DHT22;9271;48.590;8.866;2023-02-15T06:01:36;-0.20;99.90
18291;DHT22;9271;48.590;8.866;2023-02-15T06:04:03;-0.30;99.90
18291;DHT22;9271;48.590;8.866;2023-02-15T06:06:30;-0.40;99.90
18291;DHT22;9271;48.590;8.866;2023-02-15T06:08:56;-0.50;99.90
18291;DHT22;9271;48.590;8.866;2023-02-15T06:11:23;-0.50;99.90
18291;DHT22;9271;48.590;8.866;2023-02-15T06:13:50;-0.40;99.90
18291;DHT22;9271;48.590;8.866;2023-02-15T06:16:16;-0.20;99.90
18291;DHT22;9271;48.590;8.866;2023-02-15T06:18:44;-0.20;99.90
18291;DHT22;9271;48.590;8.866;2023-02-15T06:21:11;-0.20;99.90
18291;DHT22;9271;48.590;8.866;2023-02-15T06:23:37;-0.30;99.90
18291;DHT22;9271;48.590;8.866;2023-02-15T06:26:04;-0.10;99.90
18291;DHT22;9271;48.590;8.866;2023-02-15T06:28:31;0.10;99.90
18291;DHT22;9271;48.590;8.866;2023-02-15T06:30:58;0.10;99.90
18291;DHT22;9271;48.590;8.866;2023-02-15T06:33:24;0.10;99.90
18291;DHT22;9271;48.590;8.866;2023-02-15T06:35:52;0.00;99.90
18291;DHT22;9271;48.590;8.866;2023-02-15T06:38:19;0.00;99.90
18291;DHT22;9271;48.590;8.866;2023-02-15T06:40:47;0.00;99.90
18291;DHT22;9271;48.590;8.866;2023-02-15T06:43:13;0.20;99.90
18291;DHT22;9271;48.590;8.866;2023-02-15T06:45:41;0.30;99.90
18291;DHT22;9271;48.590;8.866;2023-02-15T06:48:08;0.30;99.90
18291;DHT22;9271;48.590;8.866;2023-02-15T06:50:35;0.20;99.90
18291;DHT22;9271;48.590;8.866;2023-02-15T06:53:03;0.20;99.90
18291;DHT22;9271;48.590;8.866;2023-02-15T06:55:29;0.30;99.90
18291;DHT22;9271;48.590;8.866;2023-02-15T06:57:56;0.30;99.90
18291;DHT22;9271;48.590;8.866;2023-02-15T07:00:23;0.30;99.90
18291;DHT22;9271;48.590;8.866;2023-02-15T07:02:53;0.30;99.90
18291;DHT22;9271;48.590;8.866;2023-02-15T07:05:21;0.50;99.90
18291;DHT22;9271;48.590;8.866;2023-02-15T07:07:48;0.40;99.90
18291;DHT22;9271;48.590;8.866;2023-02-15T07:10:16;0.30;99.90
18291;DHT22;9271;48.590;8.866;2023-02-15T07:12:43;0.30;99.90
18291;DHT22;9271;48.590;8.866;2023-02-15T07:15:11;0.50;99.90
18291;DHT22;9271;48.590;8.866;2023-02-15T07:17:38;0.90;99.90
18291;DHT22;9271;48.590;8.866;2023-02-15T07:20:10;0.90;99.90
18291;DHT22;9271;48.590;8.866;2023-02-15T07:22:37;0.90;99.90
18291;DHT22;9271;48.590;8.866;2023-02-15T07:25:06;1.00;99.90
18291;DHT22;9271;48.590;8.866;2023-02-15T07:27:35;1.20;99.90
18291;DHT22;9271;48.590;8.866;2023-02-15T07:30:02;1.10;99.90
18291;DHT22;9271;48.590;8.866;2023-02-15T07:32:30;1.20;99.90
18291;DHT22;9271;48.590;8.866;2023-02-15T07:34:58;1.30;99.90
18291;DHT22;9271;48.590;8.866;2023-02-15T07:37:25;1.30;99.90
18291;DHT22;9271;48.590;8.866;2023-02-15T07:39:52;1.40;99.90
18291;DHT22;9271;48.590;8.866;2023-02-15T07:42:19;1.00;99.90
18291;DHT22;9271;48.590;8.866;2023-02-15T07:44:48;0.80;99.90
18291;DHT22;9271;48.590;8.866;2023-02-15T07:47:15;1.00;99.90
18291;DHT22;9271;48.590;8.866;2023-02-15T07:49:42;1.30;99.90
18291;DHT22;9271;48.590;8.866;2023-02-15T07:52:09;1.60;99.90
18291;DHT22;9271;48.590;8.866;2023-02-15T07:54:35;1.80;99.90
18291;DHT22;9271;48.590;8.866;2023-02-15T07:57:02;1.80;99.90
18291;DHT22;9271;48.590;8.866;2023-02-15T07:59:29;1.90;99.90
18291;DHT22;9271;48.590;8.866;2023-02-15T08:01:57;2.10;99.90
18291;DHT22;9271;48.590;8.866;2023-02-15T08:04:24;2.70;99.90
18291;DHT22;9271;48.590;8.866;2023-02-15T08:06:53;3.60;99.90
18291;DHT22;9271;48.590;8.866;2023-02-15T08:09:20;3.90;99.90
18291;DHT22;9271;48.590;8.866;2023-02-15T08:11:47;4.70;99.90
18291;DHT22;9271;48.590;8.866;2023-02-15T08:14:16;7.00;99.90
18291;DHT22;9271;48.590;8.866;2023-02-15T08:16:44;9.90;99.90
18291;DHT22;9271;48.590;8.866;2023-02-15T08:19:16;12.70;96.50
18291;DHT22;9271;48.590;8.866;2023-02-15T08:21:45;15.10;88.50
18291;DHT22;9271;48.590;8.866;2023-02-15T08:24:16;17.30;71.90
18291;DHT22;9271;48.590;8.866;2023-02-15T08:26:43;18.60;60.10
18291;DHT22;9271;48.590;8.866;2023-02-15T08:29:12;20.00;54.50
18291;DHT22;9271;48.590;8.866;2023-02-15T08:31:39;20.60;47.80
18291;DHT22;9271;48.590;8.866;2023-02-15T08:34:07;21.20;44.00
18291;DHT22;9271;48.590;8.866;2023-02-15T08:36:35;21.20;41.50
18291;DHT22;9271;48.590;8.866;2023-02-15T08:39:04;22.80;39.60
18291;DHT22;9271;48.590;8.866;2023-02-15T08:41:33;23.70;37.30
18291;DHT22;9271;48.590;8.866;2023-02-15T08:44:03;24.60;34.20
18291;DHT22;9271;48.590;8.866;2023-02-15T08:46:32;25.20;32.40
18291;DHT22;9271;48.590;8.866;2023-02-15T08:48:59;24.80;31.30
18291;DHT22;9271;48.590;8.866;2023-02-15T08:51:28;24.80;31.30
18291;DHT22;9271;48.590;8.866;2023-02-15T08:53:58;25.50;30.90
18291;DHT22;9271;48.590;8.866;2023-02-15T08:56:27;25.60;30.10
18291;DHT22;9271;48.590;8.866;2023-02-15T08:58:54;25.80;30.00
18291;DHT22;9271;48.590;8.866;2023-02-15T09:01:23;26.30;28.60
18291;DHT22;9271;48.590;8.866;2023-02-15T09:03:53;26.40;28.80
18291;DHT22;9271;48.590;8.866;2023-02-15T09:06:22;26.20;29.10
18291;DHT22;9271;48.590;8.866;2023-02-15T09:08:49;26.10;28.00
18291;DHT22;9271;48.590;8.866;2023-02-15T09:11:19;27.10;27.30
18291;DHT22;9271;48.590;8.866;2023-02-15T09:13:51;27.40;26.40
18291;DHT22;9271;48.590;8.866;2023-02-15T09:16:18;27.10;26.30
18291;DHT22;9271;48.590;8.866;2023-02-15T09:18:44;26.60;26.60
18291;DHT22;9271;48.590;8.866;2023-02-15T09:21:13;26.50;27.20
18291;DHT22;9271;48.590;8.866;2023-02-15T09:23:41;26.20;26.70
18291;DHT22;9271;48.590;8.866;2023-02-15T09:26:09;25.50;27.00
18291;DHT22;9271;48.590;8.866;2023-02-15T09:28:38;26.10;27.30
18291;DHT22;9271;48.590;8.866;2023-02-15T09:31:07;25.80;26.90
18291;DHT22;9271;48.590;8.866;2023-02-15T09:33:35;26.50;26.40
18291;DHT22;9271;48.590;8.866;2023-02-15T09:36:02;26.40;27.30
18291;DHT22;9271;48.590;8.866;2023-02-15T09:38:29;26.50;26.90
18291;DHT22;9271;48.590;8.866;2023-02-15T09:41:07;26.40;26.20
18291;DHT22;9271;48.590;8.866;2023-02-15T09:43:43;27.00;26.80
18291;DHT22;9271;48.590;8.866;2023-02-15T09:46:23;27.20;26.40
18291;DHT22;9271;48.590;8.866;2023-02-15T09:48:57;26.90;26.10
18291;DHT22;9271;48.590;8.866;2023-02-15T09:51:50;27.50;26.50
18291;DHT22;9271;48.590;8.866;2023-02-15T09:54:37;28.20;25.50
18291;DHT22;9271;48.590;8.866;2023-02-15T09:57:14;28.50;24.40
18291;DHT22;9271;48.590;8.866;2023-02-15T09:59:50;29.30;24.10
18291;DHT22;9271;48.590;8.866;2023-02-15T10:02:34;28.90;24.30
18291;DHT22;9271;48.590;8.866;2023-02-15T10:05:14;29.60;24.40
18291;DHT22;9271;48.590;8.866;2023-02-15T10:08:08;29.80;23.80
18291;DHT22;9271;48.590;8.866;2023-02-15T10:10:40;30.50;23.50
18291;DHT22;9271;48.590;8.866;2023-02-15T10:13:21;30.10;23.10
18291;DHT22;9271;48.590;8.866;2023-02-15T10:15:59;30.70;23.30
18291;DHT22;9271;48.590;8.866;2023-02-15T10:18:46;30.70;22.80
18291;DHT22;9271;48.590;8.866;2023-02-15T10:21:21;30.50;23.00
18291;DHT22;9271;48.590;8.866;2023-02-15T10:24:05;30.60;23.70
18291;DHT22;9271;48.590;8.866;2023-02-15T10:26:37;29.60;23.90
18291;DHT22;9271;48.590;8.866;2023-02-15T10:29:12;29.10;24.10
18291;DHT22;9271;48.590;8.866;2023-02-15T10:31:47;29.00;24.00
18291;DHT22;9271;48.590;8.866;2023-02-15T10:34:17;28.80;24.80
18291;DHT22;9271;48.590;8.866;2023-02-15T10:37:09;30.00;24.20
18291;DHT22;9271;48.590;8.866;2023-02-15T10:39:46;31.20;22.90
18291;DHT22;9271;48.590;8.866;2023-02-15T10:42:20;31.20;22.60
18291;DHT22;9271;48.590;8.866;2023-02-15T10:45:03;30.70;23.00
18291;DHT22;9271;48.590;8.866;2023-02-15T10:47:45;30.70;23.30
18291;DHT22;9271;48.590;8.866;2023-02-15T10:50:29;30.40;23.60
18291;DHT22;9271;48.590;8.866;2023-02-15T10:53:13;30.70;23.00
18291;DHT22;9271;48.590;8.866;2023-02-15T10:55:47;31.00;23.10
18291;DHT22;9271;48.590;8.866;2023-02-15T10:58:22;31.00;22.70
18291;DHT22;9271;48.590;8.866;2023-02-15T11:00:56;31.60;22.30
18291;DHT22;9271;48.590;8.866;2023-02-15T11:03:47;31.80;22.20
18291;DHT22;9271;48.590;8.866;2023-02-15T11:06:18;32.10;22.30
18291;DHT22;9271;48.590;8.866;2023-02-15T11:08:47;32.20;22.10
18291;DHT22;9271;48.590;8.866;2023-02-15T11:11:21;31.90;22.70
18291;DHT22;9271;48.590;8.866;2023-02-15T11:13:52;32.30;22.10
18291;DHT22;9271;48.590;8.866;2023-02-15T11:16:22;31.90;22.20
18291;DHT22;9271;48.590;8.866;2023-02-15T11:18:54;31.70;22.60
18291;DHT22;9271;48.590;8.866;2023-02-15T11:21:26;32.50;21.90
18291;DHT22;9271;48.590;8.866;2023-02-15T11:23:53;32.00;22.60
18291;DHT22;9271;48.590;8.866;2023-02-15T11:26:26;31.30;22.30
18291;DHT22;9271;48.590;8.866;2023-02-15T11:28:57;32.80;22.20
18291;DHT22;9271;48.590;8.866;2023-02-15T11:31:26;33.40;21.40
18291;DHT22;9271;48.590;8.866;2023-02-15T11:34:01;32.50;21.80
18291;DHT22;9271;48.590;8.866;2023-02-15T11:36:33;32.10;22.70
18291;DHT22;9271;48.590;8.866;2023-02-15T11:39:03;32.40;22.30
18291;DHT22;9271;48.590;8.866;2023-02-15T11:41:36;31.70;21.80
18291;DHT22;9271;48.590;8.866;2023-02-15T11:44:07;31.60;22.90
18291;DHT22;9271;48.590;8.866;2023-02-15T11:46:36;33.50;23.10
18291;DHT22;9271;48.590;8.866;2023-02-15T11:49:12;34.30;21.20
18291;DHT22;9271;48.590;8.866;2023-02-15T11:51:47;33.70;21.40
18291;DHT22;9271;48.590;8.866;2023-02-15T11:54:16;34.30;21.40
18291;DHT22;9271;48.590;8.866;2023-02-15T11:56:43;35.10;20.60
18291;DHT22;9271;48.590;8.866;2023-02-15T11:59:12;35.60;20.60
18291;DHT22;9271;48.590;8.866;2023-02-15T12:01:43;34.90;20.50
18291;DHT22;9271;48.590;8.866;2023-02-15T12:04:20;35.60;20.40
18291;DHT22;9271;48.590;8.866;2023-02-15T12:06:54;35.30;20.20
18291;DHT22;9271;48.590;8.866;2023-02-15T12:09:27;36.00;20.10
18291;DHT22;9271;48.590;8.866;2023-02-15T12:12:20;35.90;20.60
18291;DHT22;9271;48.590;8.866;2023-02-15T12:14:48;35.70;19.90
18291;DHT22;9271;48.590;8.866;2023-02-15T12:17:16;35.90;19.80
18291;DHT22;9271;48.590;8.866;2023-02-15T12:19:44;36.20;19.70
18291;DHT22;9271;48.590;8.866;2023-02-15T12:22:21;36.10;20.30
18291;DHT22;9271;48.590;8.866;2023-02-15T12:24:50;36.10;19.60
18291;DHT22;9271;48.590;8.866;2023-02-15T12:27:20;36.00;19.40
18291;DHT22;9271;48.590;8.866;2023-02-15T12:29:50;35.50;19.80
18291;DHT22;9271;48.590;8.866;2023-02-15T12:32:19;35.70;19.70
18291;DHT22;9271;48.590;8.866;2023-02-15T12:34:50;35.00;19.60
18291;DHT22;9271;48.590;8.866;2023-02-15T12:37:21;34.70;20.00
18291;DHT22;9271;48.590;8.866;2023-02-15T12:39:54;35.40;19.80
18291;DHT22;9271;48.590;8.866;2023-02-15T12:42:22;35.70;19.30
18291;DHT22;9271;48.590;8.866;2023-02-15T12:44:58;36.20;19.60
18291;DHT22;9271;48.590;8.866;2023-02-15T12:47:25;36.00;19.50
18291;DHT22;9271;48.590;8.866;2023-02-15T12:52:47;35.60;19.30
18291;DHT22;9271;48.590;8.866;2023-02-15T12:55:21;37.10;18.80
18291;DHT22;9271;48.590;8.866;2023-02-15T12:57:48;36.90;19.00
18291;DHT22;9271;48.590;8.866;2023-02-15T13:00:27;36.80;19.30
18291;DHT22;9271;48.590;8.866;2023-02-15T13:02:58;35.80;19.40
18291;DHT22;9271;48.590;8.866;2023-02-15T13:05:30;35.70;19.70
18291;DHT22;9271;48.590;8.866;2023-02-15T13:08:01;36.40;19.20
18291;DHT22;9271;48.590;8.866;2023-02-15T13:10:31;36.60;19.00
18291;DHT22;9271;48.590;8.866;2023-02-15T13:13:00;36.80;18.90
18291;DHT22;9271;48.590;8.866;2023-02-15T13:15:34;36.50;19.60
18291;DHT22;9271;48.590;8.866;2023-02-15T13:18:02;36.60;19.30
18291;DHT22;9271;48.590;8.866;2023-02-15T13:20:30;36.70;19.90
18291;DHT22;9271;48.590;8.866;2023-02-15T13:23:04;36.70;19.60
18291;DHT22;9271;48.590;8.866;2023-02-15T13:25:38;36.80;19.40
18291;DHT22;9271;48.590;8.866;2023-02-15T13:28:12;37.70;17.50
18291;DHT22;9271;48.590;8.866;2023-02-15T13:30:44;38.10;18.40
18291;DHT22;9271;48.590;8.866;2023-02-15T13:33:16;37.50;19.30
18291;DHT22;9271;48.590;8.866;2023-02-15T13:35:47;36.60;19.00
18291;DHT22;9271;48.590;8.866;2023-02-15T13:38:27;36.80;18.50
18291;DHT22;9271;48.590;8.866;2023-02-15T13:41:03;36.00;19.20
18291;DHT22;9271;48.590;8.866;2023-02-15T13:43:43;34.90;20.50
18291;DHT22;9271;48.590;8.866;2023-02-15T13:46:18;35.40;19.60
18291;DHT22;9271;48.590;8.866;2023-02-15T13:48:59;34.90;19.50
18291;DHT22;9271;48.590;8.866;2023-02-15T13:51:35;36.20;18.70
18291;DHT22;9271;48.590;8.866;2023-02-15T13:54:47;36.90;18.40
18291;DHT22;9271;48.590;8.866;2023-02-15T13:57:29;36.50;18.50
18291;DHT22;9271;48.590;8.866;2023-02-15T14:00:10;36.40;18.60
18291;DHT22;9271;48.590;8.866;2023-02-15T14:03:02;36.30;18.10
18291;DHT22;9271;48.590;8.866;2023-02-15T14:05:43;35.30;19.00
18291;DHT22;9271;48.590;8.866;2023-02-15T14:08:20;34.80;19.20
18291;DHT22;9271;48.590;8.866;2023-02-15T14:10:58;34.90;18.70
18291;DHT22;9271;48.590;8.866;2023-02-15T14:13:51;34.70;19.00
18291;DHT22;9271;48.590;8.866;2023-02-15T14:16:30;34.60;19.20
18291;DHT22;9271;48.590;8.866;2023-02-15T14:19:09;34.40;19.30
18291;DHT22;9271;48.590;8.866;2023-02-15T14:21:43;34.50;19.30
18291;DHT22;9271;48.590;8.866;2023-02-15T14:24:22;34.00;19.10
18291;DHT22;9271;48.590;8.866;2023-02-15T14:26:56;32.90;20.40
18291;DHT22;9271;48.590;8.866;2023-02-15T14:29:38;32.90;19.90
18291;DHT22;9271;48.590;8.866;2023-02-15T14:32:11;32.00;19.90
18291;DHT22;9271;48.590;8.866;2023-02-15T14:34:45;31.60;19.90
18291;DHT22;9271;48.590;8.866;2023-02-15T14:37:14;31.60;19.80
18291;DHT22;9271;48.590;8.866;2023-02-15T14:39:47;31.40;20.70
18291;DHT22;9271;48.590;8.866;2023-02-15T14:42:43;32.20;20.30
18291;DHT22;9271;48.590;8.866;2023-02-15T14:45:18;31.30;19.50
18291;DHT22;9271;48.590;8.866;2023-02-15T14:47:48;30.90;20.30
18291;DHT22;9271;48.590;8.866;2023-02-15T14:50:38;30.30;20.20
18291;DHT22;9271;48.590;8.866;2023-02-15T14:53:33;30.80;20.30
18291;DHT22;9271;48.590;8.866;2023-02-15T14:56:06;31.70;20.50
18291;DHT22;9271;48.590;8.866;2023-02-15T14:58:35;31.20;20.80
18291;DHT22;9271;48.590;8.866;2023-02-15T15:01:05;31.20;21.30
18291;DHT22;9271;48.590;8.866;2023-02-15T15:03:32;31.30;21.00
18291;DHT22;9271;48.590;8.866;2023-02-15T15:06:02;30.50;20.50
18291;DHT22;9271;48.590;8.866;2023-02-15T15:08:33;30.10;21.90
18291;DHT22;9271;48.590;8.866;2023-02-15T15:14:03;29.70;21.60
18291;DHT22;9271;48.590;8.866;2023-02-15T15:16:50;29.80;21.70
18291;DHT22;9271;48.590;8.866;2023-02-15T15:22:30;28.50;21.10
18291;DHT22;9271;48.590;8.866;2023-02-15T15:24:57;27.30;23.20
18291;DHT22;9271;48.590;8.866;2023-02-15T15:27:51;26.90;23.40
18291;DHT22;9271;48.590;8.866;2023-02-15T15:34:06;26.80;25.10
18291;DHT22;9271;48.590;8.866;2023-02-15T15:42:48;25.40;26.50
18291;DHT22;9271;48.590;8.866;2023-02-15T15:45:29;25.20;26.00
18291;DHT22;9271;48.590;8.866;2023-02-15T15:51:10;24.40;27.50
18291;DHT22;9271;48.590;8.866;2023-02-15T15:53:40;23.40;29.30
18291;DHT22;9271;48.590;8.866;2023-02-15T15:56:13;22.40;28.70
18291;DHT22;9271;48.590;8.866;2023-02-15T15:58:44;22.10;29.10
18291;DHT22;9271;48.590;8.866;2023-02-15T16:01:12;22.80;29.40
18291;DHT22;9271;48.590;8.866;2023-02-15T16:03:48;23.30;28.80
18291;DHT22;9271;48.590;8.866;2023-02-15T16:06:33;23.50;28.70
18291;DHT22;9271;48.590;8.866;2023-02-15T16:09:15;23.70;28.60
18291;DHT22;9271;48.590;8.866;2023-02-15T16:11:43;23.40;29.30
18291;DHT22;9271;48.590;8.866;2023-02-15T16:14:16;22.70;30.10
18291;DHT22;9271;48.590;8.866;2023-02-15T16:16:48;21.80;31.20
18291;DHT22;9271;48.590;8.866;2023-02-15T16:19:19;20.90;32.10
18291;DHT22;9271;48.590;8.866;2023-02-15T16:21:48;20.00;32.90
18291;DHT22;9271;48.590;8.866;2023-02-15T16:24:30;19.20;34.20
18291;DHT22;9271;48.590;8.866;2023-02-15T16:27:22;18.30;36.20
18291;DHT22;9271;48.590;8.866;2023-02-15T16:29:53;17.20;38.40
18291;DHT22;9271;48.590;8.866;2023-02-15T16:32:22;16.40;38.90
18291;DHT22;9271;48.590;8.866;2023-02-15T16:34:55;16.00;40.20
18291;DHT22;9271;48.590;8.866;2023-02-15T16:37:24;15.50;41.20
18291;DHT22;9271;48.590;8.866;2023-02-15T16:39:53;15.00;42.00
18291;DHT22;9271;48.590;8.866;2023-02-15T16:42:21;14.50;43.00
18291;DHT22;9271;48.590;8.866;2023-02-15T16:44:51;14.20;43.90
18291;DHT22;9271;48.590;8.866;2023-02-15T16:47:21;13.90;44.80